Time;durP1;ratioP1;P1;durP2;ratioP2;P2;SDS_P1;SDS_P2;PMS_P1;PMS_P2;Temp;Humidity;BMP_temperature;BMP_pressure;BME280_temperature;BME280_humidity;BME280_pressure;Samples;Min_cycle;Max_cycle;Signal;HPM_P1;HPM_P2
2024/01/16 00:02:01;;;;;;;8.55;1.73;;;-0.40;99.90;;;;;;6098580;23;20408;-76
2024/01/16 00:04:29;;;;;;;3.00;0.80;;;-0.40;99.90;;;;;;6097891;23;20018;-76
2024/01/16 00:06:55;;;;;;;11.23;2.28;;;-0.40;99.90;;;;;;6122672;23;20096;-76
2024/01/16 00:09:20;;;;;;;10.82;3.10;;;-0.40;99.90;;;;;;6098490;23;20097;-76
2024/01/16 00:11:46;;;;;;;6.82;1.10;;;-0.30;99.90;;;;;;6122754;23;20018;-76
2024/01/16 00:14:12;;;;;;;5.60;1.10;;;-0.30;99.90;;;;;;6122639;23;20014;-75
2024/01/16 00:16:45;;;;;;;9.40;1.10;;;-0.20;99.90;;;;;;6122237;23;20025;-76
2024/01/16 00:19:11;;;;;;;7.38;0.68;;;-0.30;99.90;;;;;;6122649;23;20038;-76
2024/01/16 00:21:41;;;;;;;9.25;1.45;;;-0.30;99.90;;;;;;6122891;23;20025;-76
2024/01/16 00:24:07;;;;;;;14.20;4.20;;;-0.30;99.90;;;;;;6122545;23;20010;-76
2024/01/16 00:26:33;;;;;;;8.65;1.33;;;-0.30;99.90;;;;;;6121973;23;20068;-76
2024/01/16 00:28:59;;;;;;;4.18;2.05;;;-0.40;99.90;;;;;;6097843;23;20067;-76
2024/01/16 00:31:24;;;;;;;6.45;1.30;;;-0.40;99.90;;;;;;6122783;23;20021;-76
2024/01/16 00:33:50;;;;;;;6.90;0.70;;;-0.50;99.90;;;;;;6097772;23;20344;-76
2024/01/16 00:36:15;;;;;;;7.78;0.93;;;-0.60;99.90;;;;;;6122675;23;20064;-76
2024/01/16 00:38:41;;;;;;;5.57;0.75;;;-0.60;99.90;;;;;;6122572;23;20018;-76
2024/01/16 00:41:06;;;;;;;16.73;2.65;;;-0.70;99.90;;;;;;6122357;23;20102;-76
2024/01/16 00:43:32;;;;;;;13.55;2.60;;;-0.70;99.90;;;;;;6097868;23;20014;-76
2024/01/16 00:45:58;;;;;;;9.20;1.10;;;-0.60;99.90;;;;;;6122480;23;20101;-76
2024/01/16 00:48:24;;;;;;;5.22;0.70;;;-0.70;99.90;;;;;;6122533;23;20337;-76
2024/01/16 00:50:49;;;;;;;13.10;2.75;;;-0.70;99.90;;;;;;6122733;23;20332;-76
2024/01/16 00:53:18;;;;;;;2.88;1.15;;;-0.70;99.90;;;;;;6122332;23;20455;-76
2024/01/16 00:55:44;;;;;;;6.72;1.05;;;-0.70;99.90;;;;;;6121944;23;20017;-76
2024/01/16 00:58:09;;;;;;;13.75;2.83;;;-0.80;99.90;;;;;;6122492;23;20525;-76
2024/01/16 01:00:37;;;;;;;5.00;1.40;;;-0.70;99.90;;;;;;6099660;23;20088;-76
2024/01/16 01:03:03;;;;;;;1.92;0.82;;;-0.70;99.90;;;;;;6124022;23;20065;-76
2024/01/16 01:05:29;;;;;;;2.42;0.93;;;-0.60;99.90;;;;;;6124417;23;20447;-76
2024/01/16 01:07:58;;;;;;;10.63;2.05;;;-0.70;99.90;;;;;;6124080;23;20028;-76
2024/01/16 01:10:23;;;;;;;3.70;0.82;;;-0.70;99.90;;;;;;6099504;23;20014;-76
2024/01/16 01:12:51;;;;;;;5.40;0.90;;;-0.70;99.90;;;;;;6099590;23;20139;-76
2024/01/16 01:15:17;;;;;;;9.75;2.65;;;-0.70;99.90;;;;;;6124222;23;20311;-76
2024/01/16 01:17:42;;;;;;;1.17;0.70;;;-0.80;99.90;;;;;;6123951;23;20065;-76
2024/01/16 01:20:08;;;;;;;4.47;0.77;;;-0.80;99.90;;;;;;6099579;23;20092;-76
2024/01/16 01:22:37;;;;;;;6.13;1.25;;;-0.80;99.90;;;;;;6099954;23;20037;-76
2024/01/16 01:25:03;;;;;;;4.88;0.95;;;-0.90;99.90;;;;;;6124114;23;20389;-76
2024/01/16 01:27:28;;;;;;;6.80;0.85;;;-0.90;99.90;;;;;;6123642;23;20018;-76
2024/01/16 01:29:54;;;;;;;5.15;1.00;;;-0.90;99.90;;;;;;6099883;23;20513;-76
2024/01/16 01:32:19;;;;;;;11.45;2.58;;;-0.90;99.90;;;;;;6123953;23;20018;-76
2024/01/16 01:34:45;;;;;;;4.80;1.00;;;-0.90;99.90;;;;;;6099126;23;20026;-76
2024/01/16 01:37:10;;;;;;;3.03;0.70;;;-0.90;99.90;;;;;;6123731;23;20010;-76
2024/01/16 01:39:36;;;;;;;5.57;1.10;;;-1.00;99.90;;;;;;6124071;23;20017;-76
2024/01/16 01:42:01;;;;;;;3.40;0.93;;;-1.00;99.90;;;;;;6124187;23;20088;-76
2024/01/16 01:44:27;;;;;;;7.28;0.80;;;-1.00;99.90;;;;;;6123795;23;20025;-76
2024/01/16 01:46:56;;;;;;;8.15;0.80;;;-0.90;99.90;;;;;;6123915;23;20136;-76
2024/01/16 01:49:22;;;;;;;13.10;2.67;;;-1.00;99.90;;;;;;6123827;23;20510;-76
2024/01/16 01:51:49;;;;;;;3.17;0.50;;;-0.90;99.90;;;;;;6099603;23;20044;-76
2024/01/16 01:54:16;;;;;;;2.33;0.55;;;-0.90;99.90;;;;;;6123594;23;20021;-76
2024/01/16 01:56:44;;;;;;;2.17;0.63;;;-1.00;99.90;;;;;;6123763;23;20010;-76
2024/01/16 01:59:11;;;;;;;4.75;0.68;;;-1.00;99.90;;;;;;6123842;23;20320;-76
2024/01/16 02:01:37;;;;;;;3.53;0.77;;;-1.00;99.90;;;;;;6123962;23;20009;-76
2024/01/16 02:04:03;;;;;;;14.00;2.67;;;-1.00;99.90;;;;;;6098861;23;20654;-76
2024/01/16 02:06:29;;;;;;;6.47;1.20;;;-1.00;99.90;;;;;;6123725;23;20018;-76
2024/01/16 02:08:54;;;;;;;15.07;1.10;;;-1.00;99.90;;;;;;6123676;23;20016;-76
2024/01/16 02:11:20;;;;;;;2.47;0.60;;;-1.00;99.90;;;;;;6123394;23;20469;-75
2024/01/16 02:13:46;;;;;;;7.00;0.85;;;-1.00;99.90;;;;;;6123492;23;20014;-76
2024/01/16 02:16:24;;;;;;;8.13;1.25;;;-1.10;99.90;;;;;;6123639;23;20013;-76
2024/01/16 02:18:52;;;;;;;5.57;1.70;;;-1.10;99.90;;;;;;6123600;23;20092;-75
2024/01/16 02:21:22;;;;;;;8.63;1.05;;;-1.10;99.90;;;;;;6123379;23;20014;-76
2024/01/16 02:23:48;;;;;;;10.88;3.88;;;-1.10;99.90;;;;;;6123142;23;20022;-76
2024/01/16 02:26:18;;;;;;;3.88;0.98;;;-1.10;99.90;;;;;;6123326;23;20391;-76
2024/01/16 02:28:44;;;;;;;7.72;1.63;;;-1.10;99.90;;;;;;6123443;23;20013;-76
2024/01/16 02:31:09;;;;;;;2.63;1.33;;;-1.10;99.90;;;;;;6123381;23;20096;-76
2024/01/16 02:33:35;;;;;;;16.55;3.80;;;-1.10;99.90;;;;;;6098746;23;20021;-75
2024/01/16 02:36:01;;;;;;;16.55;4.00;;;-1.10;99.90;;;;;;6123456;23;20010;-76
2024/01/16 02:38:26;;;;;;;5.60;1.27;;;-1.00;99.90;;;;;;6123382;23;20093;-76
2024/01/16 02:40:52;;;;;;;4.38;0.60;;;-1.00;99.90;;;;;;6123591;23;20028;-76
2024/01/16 02:43:17;;;;;;;4.03;1.33;;;-1.10;99.90;;;;;;6123351;23;20428;-76
2024/01/16 02:45:43;;;;;;;2.70;0.68;;;-1.00;99.90;;;;;;6123188;23;20025;-76
2024/01/16 02:48:09;;;;;;;14.02;1.75;;;-1.10;99.90;;;;;;6123116;23;20022;-76
2024/01/16 02:50:34;;;;;;;7.00;1.02;;;-1.00;99.90;;;;;;6123407;23;20021;-76
2024/01/16 02:53:00;;;;;;;4.13;0.75;;;-1.10;99.90;;;;;;6098740;23;20018;-76
2024/01/16 02:55:25;;;;;;;3.85;0.82;;;-1.10;99.90;;;;;;6123469;23;20327;-75
2024/01/16 02:57:51;;;;;;;12.95;2.88;;;-1.10;99.90;;;;;;6123153;23;20045;-76
2024/01/16 03:00:17;;;;;;;5.50;0.75;;;-1.10;99.90;;;;;;6123168;23;20017;-75
2024/01/16 03:02:43;;;;;;;6.97;0.95;;;-1.10;99.90;;;;;;6123149;23;20335;-76
2024/01/16 03:05:10;;;;;;;9.05;2.60;;;-1.10;99.90;;;;;;6123122;23;20025;-76
2024/01/16 03:07:36;;;;;;;5.82;1.58;;;-1.20;99.90;;;;;;6098545;23;20021;-76
2024/01/16 03:10:02;;;;;;;6.10;1.10;;;-1.20;99.90;;;;;;6123181;23;20455;-76
2024/01/16 03:12:27;;;;;;;6.95;1.23;;;-1.30;99.90;;;;;;6123171;23;20017;-76
2024/01/16 03:14:53;;;;;;;6.10;1.00;;;-1.30;99.90;;;;;;6122726;23;20014;-76
2024/01/16 03:17:19;;;;;;;4.05;0.80;;;-1.30;99.90;;;;;;6123132;23;20014;-76
2024/01/16 03:19:44;;;;;;;7.30;0.80;;;-1.40;99.90;;;;;;6123071;23;20041;-75
2024/01/16 03:22:10;;;;;;;5.68;1.33;;;-1.40;99.90;;;;;;6122959;23;20451;-76
2024/01/16 03:24:35;;;;;;;6.30;1.27;;;-1.40;99.90;;;;;;6122906;23;20018;-75
2024/01/16 03:27:01;;;;;;;2.55;0.80;;;-1.40;99.90;;;;;;6122782;23;20018;-76
2024/01/16 03:29:27;;;;;;;12.50;2.78;;;-1.40;99.90;;;;;;6122646;23;20010;-76
2024/01/16 03:31:53;;;;;;;6.28;0.80;;;-1.50;99.90;;;;;;6098489;23;20018;-75
2024/01/16 03:34:19;;;;;;;5.68;0.90;;;-1.60;99.90;;;;;;6121898;23;20046;-75
2024/01/16 03:36:44;;;;;;;8.43;1.17;;;-1.50;99.90;;;;;;6122324;23;20006;-76
2024/01/16 03:39:10;;;;;;;2.97;0.80;;;-1.50;99.90;;;;;;6122183;23;20089;-76
2024/01/16 03:41:35;;;;;;;4.50;0.73;;;-1.40;99.90;;;;;;6122979;23;20347;-76
2024/01/16 03:44:01;;;;;;;3.90;0.80;;;-1.50;99.90;;;;;;6122552;23;20010;-76
2024/01/16 03:46:27;;;;;;;15.55;1.40;;;-1.40;99.90;;;;;;6122352;23;20032;-75
2024/01/16 03:48:52;;;;;;;14.98;3.28;;;-1.50;99.90;;;;;;6122849;23;20065;-75
2024/01/16 03:51:20;;;;;;;5.57;0.73;;;-1.50;99.90;;;;;;6122880;23;20018;-75
2024/01/16 03:53:46;;;;;;;10.00;1.05;;;-1.50;99.90;;;;;;6122122;23;20025;-76
2024/01/16 03:56:12;;;;;;;4.43;0.93;;;-1.50;99.90;;;;;;6122747;23;20320;-75
2024/01/16 03:58:39;;;;;;;15.07;3.58;;;-1.50;99.90;;;;;;6122677;23;20089;-75
2024/01/16 04:01:05;;;;;;;11.85;1.35;;;-1.40;99.90;;;;;;6098338;23;20061;-75
2024/01/16 04:03:30;;;;;;;6.18;0.68;;;-1.40;99.90;;;;;;6122523;23;20014;-75
2024/01/16 04:05:56;;;;;;;4.60;0.85;;;-1.40;99.90;;;;;;6098346;23;20018;-75
2024/01/16 04:08:21;;;;;;;4.05;0.60;;;-1.40;99.90;;;;;;6122969;23;20014;-76
2024/01/16 04:10:47;;;;;;;11.35;2.83;;;-1.40;99.90;;;;;;6122544;23;20022;-76
2024/01/16 04:13:13;;;;;;;12.98;1.70;;;-1.40;99.90;;;;;;6122274;23;20017;-75
2024/01/16 04:15:39;;;;;;;5.28;0.85;;;-1.40;99.90;;;;;;6122644;23;20562;-75
2024/01/16 04:18:04;;;;;;;8.80;1.05;;;-1.30;99.90;;;;;;6123040;23;20463;-76
2024/01/16 04:20:30;;;;;;;3.08;0.80;;;-1.40;99.90;;;;;;6098594;23;20010;-75
2024/01/16 04:22:57;;;;;;;3.15;0.60;;;-1.30;99.90;;;;;;6122606;23;20024;-75
2024/01/16 04:25:23;;;;;;;7.97;0.77;;;-1.30;99.90;;;;;;6098129;23;20018;-76
2024/01/16 04:27:49;;;;;;;13.50;2.65;;;-1.20;99.90;;;;;;6122642;23;20018;-75
2024/01/16 04:30:14;;;;;;;6.03;1.10;;;-1.30;99.90;;;;;;6122888;23;20351;-75
2024/01/16 04:32:40;;;;;;;5.18;1.00;;;-1.20;99.90;;;;;;6122803;23;20026;-75
2024/01/16 04:35:06;;;;;;;13.77;2.53;;;-1.10;99.90;;;;;;6124244;23;20009;-75
2024/01/16 04:37:31;;;;;;;7.32;1.15;;;-1.10;99.90;;;;;;6124561;23;20041;-75
2024/01/16 04:39:58;;;;;;;4.15;1.10;;;-1.00;99.90;;;;;;6124799;23;20462;-75
2024/01/16 04:42:23;;;;;;;5.50;1.25;;;-0.90;99.90;;;;;;6124116;23;20041;-75
2024/01/16 04:44:49;;;;;;;6.32;2.10;;;-0.90;99.90;;;;;;6099648;23;20481;-75
2024/01/16 04:47:14;;;;;;;9.52;1.45;;;-0.80;99.90;;;;;;6124575;23;20045;-76
2024/01/16 04:49:42;;;;;;;11.18;3.35;;;-0.80;99.90;;;;;;6124610;23;20102;-75
2024/01/16 04:52:07;;;;;;;6.57;1.42;;;-0.70;99.90;;;;;;6124601;23;20014;-75
2024/01/16 04:54:33;;;;;;;3.25;1.17;;;-0.70;99.90;;;;;;6124034;23;20347;-75
2024/01/16 04:56:59;;;;;;;8.60;1.40;;;-0.70;99.90;;;;;;6124220;23;20462;-75
2024/01/16 04:59:24;;;;;;;5.78;1.10;;;-0.70;99.90;;;;;;6124295;23;20016;-75
2024/01/16 05:01:51;;;;;;;10.18;1.35;;;-0.70;99.90;;;;;;6124490;23;20013;-75
2024/01/16 05:04:16;;;;;;;2.28;0.75;;;-0.70;99.90;;;;;;6124154;23;20013;-75
2024/01/16 05:06:42;;;;;;;11.77;2.83;;;-0.70;99.90;;;;;;6124162;23;20328;-75
2024/01/16 05:09:09;;;;;;;4.53;0.93;;;-0.60;99.90;;;;;;6124387;23;20041;-75
2024/01/16 05:11:34;;;;;;;5.88;1.13;;;-0.60;99.90;;;;;;6123995;23;20021;-75
2024/01/16 05:14:00;;;;;;;6.80;0.90;;;-0.70;99.90;;;;;;6123760;23;20093;-76
2024/01/16 05:16:26;;;;;;;13.73;3.45;;;-0.60;99.90;;;;;;6124277;23;20550;-75
2024/01/16 05:18:53;;;;;;;14.77;3.15;;;-0.70;99.90;;;;;;6124263;23;20098;-76
2024/01/16 05:21:18;;;;;;;4.35;0.90;;;-0.70;99.90;;;;;;6099893;23;20021;-75
2024/01/16 05:23:44;;;;;;;5.43;1.40;;;-0.70;99.90;;;;;;6124066;23;20010;-75
2024/01/16 05:26:09;;;;;;;1.38;0.73;;;-0.70;99.90;;;;;;6099291;23;20014;-76
2024/01/16 05:28:35;;;;;;;6.53;1.38;;;-0.70;99.90;;;;;;6124014;23;20073;-76
2024/01/16 05:31:00;;;;;;;3.70;0.70;;;-0.70;99.90;;;;;;6099766;23;20018;-76
2024/01/16 05:33:26;;;;;;;3.65;0.88;;;-0.70;99.90;;;;;;6123586;23;20032;-76
2024/01/16 05:35:51;;;;;;;4.53;1.40;;;-0.80;99.90;;;;;;6099503;23;20042;-75
2024/01/16 05:38:17;;;;;;;6.90;1.15;;;-0.80;99.90;;;;;;6123938;23;20018;-76
2024/01/16 05:40:43;;;;;;;5.75;1.35;;;-0.80;99.90;;;;;;6123200;23;20010;-76
2024/01/16 05:43:08;;;;;;;13.95;4.95;;;-0.80;99.90;;;;;;6123485;23;20024;-76
2024/01/16 05:45:34;;;;;;;8.00;1.55;;;-0.80;99.90;;;;;;6123625;23;20454;-76
2024/01/16 05:48:00;;;;;;;5.65;1.52;;;-0.70;99.90;;;;;;6099492;23;20014;-75
2024/01/16 05:50:25;;;;;;;6.70;1.90;;;-0.70;99.90;;;;;;6123878;23;20017;-76
2024/01/16 05:52:51;;;;;;;15.90;6.82;;;-0.70;99.90;;;;;;6123636;23;20065;-75
2024/01/16 05:55:17;;;;;;;6.80;1.90;;;-0.60;99.90;;;;;;6123305;23;20045;-76
2024/01/16 05:57:43;;;;;;;7.93;2.33;;;-0.60;99.90;;;;;;6123686;23;20089;-76
2024/01/16 06:00:09;;;;;;;3.33;1.85;;;-0.60;99.90;;;;;;6123903;23;20343;-76
2024/01/16 06:02:35;;;;;;;5.82;2.47;;;-0.60;99.90;;;;;;6099399;23;20014;-76
2024/01/16 06:05:02;;;;;;;5.60;1.88;;;-0.50;99.90;;;;;;6097815;23;20343;-76
2024/01/16 06:07:28;;;;;;;14.15;5.72;;;-0.60;99.90;;;;;;6123166;23;20100;-76
2024/01/16 06:09:53;;;;;;;14.48;6.60;;;-0.50;99.90;;;;;;6123677;23;20038;-76
2024/01/16 06:12:20;;;;;;;6.65;2.25;;;-0.50;99.90;;;;;;6123771;23;20040;-76
2024/01/16 06:14:45;;;;;;;10.10;1.98;;;-0.50;99.90;;;;;;6122499;23;20020;-76
2024/01/16 06:17:11;;;;;;;6.38;1.73;;;-0.50;99.90;;;;;;6123520;23;20081;-76
2024/01/16 06:19:36;;;;;;;11.88;6.43;;;-0.50;99.90;;;;;;6123914;23;20014;-76
2024/01/16 06:22:02;;;;;;;9.15;2.95;;;-0.50;99.90;;;;;;6122803;23;20482;-76
2024/01/16 06:24:28;;;;;;;8.65;2.33;;;-0.50;99.90;;;;;;6123012;23;20018;-76
2024/01/16 06:26:54;;;;;;;7.00;1.95;;;-0.50;99.90;;;;;;6123268;23;20026;-76
2024/01/16 06:29:20;;;;;;;12.30;7.03;;;-0.50;99.90;;;;;;6098866;23;20477;-76
2024/01/16 06:31:45;;;;;;;9.43;2.50;;;-0.50;99.90;;;;;;6123477;23;20480;-76
2024/01/16 06:34:11;;;;;;;8.27;2.25;;;-0.50;99.90;;;;;;6122956;23;20017;-76
2024/01/16 06:36:36;;;;;;;5.43;1.65;;;-0.50;99.90;;;;;;6123438;23;20017;-76
2024/01/16 06:39:03;;;;;;;9.20;2.22;;;-0.50;99.90;;;;;;6123557;23;20048;-76
2024/01/16 06:41:28;;;;;;;5.72;2.00;;;-0.60;99.90;;;;;;6122928;23;20018;-76
2024/01/16 06:43:54;;;;;;;7.47;2.25;;;-0.50;99.90;;;;;;6122898;23;20356;-76
2024/01/16 06:46:19;;;;;;;4.43;2.47;;;-0.50;99.90;;;;;;6123310;23;20450;-75
2024/01/16 06:48:45;;;;;;;16.50;9.98;;;-0.50;99.90;;;;;;6123257;23;20466;-76
2024/01/16 06:51:13;;;;;;;17.42;9.95;;;-0.50;99.90;;;;;;6123237;23;20017;-75
2024/01/16 06:53:39;;;;;;;10.75;3.67;;;-0.50;99.90;;;;;;6122662;23;20069;-75
2024/01/16 06:56:07;;;;;;;5.53;2.88;;;-0.50;99.90;;;;;;6122402;23;20013;-76
2024/01/16 06:58:32;;;;;;;6.22;2.20;;;-0.50;99.90;;;;;;6122982;23;20409;-76
2024/01/16 07:00:58;;;;;;;18.25;9.52;;;-0.40;99.90;;;;;;6122806;23;20052;-76
2024/01/16 07:03:24;;;;;;;5.10;2.42;;;-0.40;99.90;;;;;;6098454;23;20093;-76
2024/01/16 07:05:49;;;;;;;7.32;2.00;;;-0.40;99.90;;;;;;6122844;23;20068;-76
2024/01/16 07:08:15;;;;;;;6.63;2.10;;;-0.40;99.90;;;;;;6123277;23;20010;-76
2024/01/16 07:10:40;;;;;;;17.08;8.57;;;-0.40;99.90;;;;;;6122514;23;20017;-76
2024/01/16 07:13:07;;;;;;;17.25;8.82;;;-0.40;99.90;;;;;;6122454;23;20458;-76
2024/01/16 07:15:32;;;;;;;7.15;2.55;;;-0.40;99.90;;;;;;6122800;23;20014;-76
2024/01/16 07:17:58;;;;;;;6.35;2.13;;;-0.50;99.90;;;;;;6122971;23;20006;-75
2024/01/16 07:20:24;;;;;;;5.95;2.03;;;-0.40;99.90;;;;;;6123248;23;20014;-75
2024/01/16 07:22:50;;;;;;;14.40;9.25;;;-0.40;99.90;;;;;;6123066;23;20408;-76
2024/01/16 07:25:15;;;;;;;6.47;2.88;;;-0.40;99.90;;;;;;6122214;23;20017;-75
2024/01/16 07:27:42;;;;;;;15.95;10.57;;;-0.40;99.90;;;;;;6122356;23;20190;-76
2024/01/16 07:30:08;;;;;;;10.57;3.05;;;-0.40;99.90;;;;;;6123656;23;20025;-79
2024/01/16 07:32:34;;;;;;;5.80;3.03;;;-0.30;99.90;;;;;;6098880;23;20013;-76
2024/01/16 07:35:00;;;;;;;10.73;4.38;;;-0.40;99.90;;;;;;6122949;23;20021;-76
2024/01/16 07:37:25;;;;;;;23.83;12.90;;;-0.40;99.90;;;;;;6098731;23;20014;-78
2024/01/16 07:39:51;;;;;;;10.15;3.92;;;-0.30;99.90;;;;;;6097940;23;20010;-78
2024/01/16 07:42:16;;;;;;;22.50;13.52;;;-0.30;99.90;;;;;;6123174;23;20010;-78
2024/01/16 07:44:42;;;;;;;9.70;4.82;;;-0.30;99.90;;;;;;6123148;23;20043;-79
2024/01/16 07:47:07;;;;;;;23.83;16.15;;;-0.30;99.90;;;;;;6123005;23;20022;-78
2024/01/16 07:49:34;;;;;;;10.63;4.38;;;-0.20;99.90;;;;;;6098801;23;20431;-78
2024/01/16 07:51:59;;;;;;;26.25;18.00;;;-0.20;99.90;;;;;;6123791;23;20018;-77
2024/01/16 07:54:25;;;;;;;14.20;5.88;;;-0.20;99.90;;;;;;6122449;23;20025;-78
2024/01/16 07:56:51;;;;;;;10.13;5.45;;;-0.20;99.90;;;;;;6122953;23;20010;-78
2024/01/16 07:59:17;;;;;;;16.63;5.70;;;-0.10;99.90;;;;;;6122863;23;20096;-79
2024/01/16 08:01:43;;;;;;;10.13;5.25;;;-0.10;99.90;;;;;;6123575;23;20013;-78
2024/01/16 08:04:08;;;;;;;32.22;22.77;;;-0.10;99.90;;;;;;6099257;23;20013;-78
2024/01/16 08:06:34;;;;;;;11.38;5.85;;;0.00;99.90;;;;;;6122965;23;20021;-78
2024/01/16 08:09:00;;;;;;;10.38;5.90;;;0.00;99.90;;;;;;6099945;23;20347;-78
2024/01/16 08:11:25;;;;;;;25.73;20.77;;;0.00;99.90;;;;;;6126072;23;20013;-77
2024/01/16 08:13:51;;;;;;;14.18;7.13;;;0.00;99.90;;;;;;6100123;23;20022;-79
2024/01/16 08:16:16;;;;;;;30.70;22.48;;;0.00;99.90;;;;;;6100408;23;20351;-79
2024/01/16 08:18:42;;;;;;;32.78;23.02;;;0.00;99.90;;;;;;6124546;23;20014;-78
2024/01/16 08:21:08;;;;;;;14.00;6.53;;;0.00;99.90;;;;;;6124253;23;20020;-77
2024/01/16 08:23:34;;;;;;;11.68;6.13;;;0.10;99.90;;;;;;6123606;23;20013;-77
2024/01/16 08:26:00;;;;;;;13.63;6.45;;;0.00;99.90;;;;;;6119989;23;20018;-78
2024/01/16 08:28:26;;;;;;;32.55;21.70;;;0.00;99.90;;;;;;6071641;23;20018;-78
2024/01/16 08:30:52;;;;;;;30.00;21.38;;;0.00;99.90;;;;;;6047917;23;20025;-78
2024/01/16 08:33:17;;;;;;;16.58;6.63;;;0.00;99.90;;;;;;6071557;23;20468;-78
2024/01/16 08:35:43;;;;;;;28.92;21.67;;;0.00;99.90;;;;;;6071352;23;20013;-78
2024/01/16 08:38:08;;;;;;;18.08;6.90;;;0.00;99.90;;;;;;6095346;23;20069;-78
2024/01/16 08:40:34;;;;;;;12.70;6.85;;;0.00;99.90;;;;;;6071808;23;20013;-78
2024/01/16 08:43:00;;;;;;;11.68;6.28;;;0.00;99.90;;;;;;6071286;23;20015;-81
2024/01/16 08:45:28;;;;;;;10.23;5.45;;;0.00;99.90;;;;;;6071528;23;20101;-80
2024/01/16 08:47:53;;;;;;;24.13;20.63;;;0.00;99.90;;;;;;6071226;23;20102;-81
2024/01/16 08:50:19;;;;;;;10.65;5.75;;;0.00;99.90;;;;;;6047445;23;20055;-79
2024/01/16 08:52:44;;;;;;;31.48;23.60;;;0.00;99.90;;;;;;6070894;23;20021;-83
2024/01/16 08:55:10;;;;;;;17.38;6.88;;;0.10;99.90;;;;;;6071205;23;20347;-81
2024/01/16 08:57:39;;;;;;;27.27;22.13;;;0.10;99.90;;;;;;6071104;23;20011;-80
2024/01/16 09:00:05;;;;;;;12.32;5.55;;;0.10;99.90;;;;;;6071086;23;20006;-78
2024/01/16 09:02:31;;;;;;;26.52;18.77;;;0.10;99.90;;;;;;6071582;23;20451;-78
2024/01/16 09:04:58;;;;;;;22.58;17.90;;;0.00;99.90;;;;;;6071654;23;20094;-78
2024/01/16 09:07:24;;;;;;;10.85;5.18;;;0.10;99.90;;;;;;6071660;23;20021;-79
2024/01/16 09:09:49;;;;;;;8.77;4.70;;;0.10;99.90;;;;;;6071307;23;20007;-78
2024/01/16 09:12:15;;;;;;;23.80;16.63;;;0.00;99.90;;;;;;6071614;23;20014;-79
2024/01/16 09:14:41;;;;;;;9.45;3.95;;;0.10;99.90;;;;;;6047018;23;20015;-78
2024/01/16 09:17:06;;;;;;;25.23;17.75;;;0.10;99.90;;;;;;6071666;23;20467;-79
2024/01/16 09:19:32;;;;;;;31.23;19.17;;;0.20;99.90;;;;;;6070676;23;20017;-79
2024/01/16 09:21:58;;;;;;;12.38;4.63;;;0.30;99.90;;;;;;6071637;23;20097;-79
2024/01/16 09:24:23;;;;;;;24.38;17.23;;;0.30;99.90;;;;;;6071001;23;20025;-79
2024/01/16 09:26:49;;;;;;;12.43;5.70;;;0.40;99.90;;;;;;6071286;23;20540;-78
2024/01/16 09:29:14;;;;;;;8.95;4.95;;;0.40;99.90;;;;;;6124537;23;20073;-79
2024/01/16 09:31:43;;;;;;;18.95;13.68;;;0.50;99.90;;;;;;6099457;23;20258;-81
2024/01/16 09:34:10;;;;;;;18.63;14.32;;;0.50;99.90;;;;;;6123793;23;20071;-80
2024/01/16 09:36:36;;;;;;;19.17;15.07;;;0.60;99.90;;;;;;6099890;23;20387;-81
2024/01/16 09:39:07;;;;;;;11.23;4.82;;;0.60;99.90;;;;;;6123638;23;20068;-80
2024/01/16 09:41:34;;;;;;;17.52;14.40;;;0.60;99.90;;;;;;6124362;23;20343;-80
2024/01/16 09:43:59;;;;;;;15.75;13.88;;;0.70;99.90;;;;;;6099144;23;20520;-80
2024/01/16 09:46:26;;;;;;;17.13;13.15;;;0.70;99.90;;;;;;6124255;23;20057;-81
2024/01/16 09:48:55;;;;;;;15.93;4.68;;;0.80;99.90;;;;;;6124260;23;20018;-81
2024/01/16 09:51:20;;;;;;;9.52;3.70;;;0.80;99.90;;;;;;6099704;23;20354;-81
2024/01/16 09:53:46;;;;;;;6.05;3.58;;;0.80;99.90;;;;;;6099559;23;20089;-82
2024/01/16 09:56:16;;;;;;;13.43;10.45;;;0.80;99.90;;;;;;6123999;23;20006;-81
2024/01/16 09:58:43;;;;;;;13.15;9.88;;;0.80;99.90;;;;;;6123829;23;20103;-81
2024/01/16 10:01:11;;;;;;;11.35;9.40;;;0.80;99.90;;;;;;6123668;23;20014;-83
2024/01/16 10:03:38;;;;;;;7.00;3.60;;;0.90;99.90;;;;;;6098719;23;20018;-80
2024/01/16 10:06:07;;;;;;;11.35;8.63;;;0.80;99.90;;;;;;6122847;23;20018;-84
2024/01/16 10:08:33;;;;;;;9.40;2.30;;;0.80;99.90;;;;;;6123952;23;20018;-81
2024/01/16 10:10:59;;;;;;;7.55;5.53;;;0.80;99.90;;;;;;6123179;23;20060;-83
2024/01/16 10:13:29;;;;;;;2.63;1.40;;;0.80;99.90;;;;;;6123575;23;20018;-83
2024/01/16 10:15:55;;;;;;;10.43;4.45;;;0.90;99.90;;;;;;6123169;23;20071;-86
2024/01/16 10:18:32;;;;;;;10.63;4.68;;;0.90;99.90;;;;;;6123161;23;20018;-84
2024/01/16 10:20:57;;;;;;;10.35;3.95;;;0.90;99.90;;;;;;6099241;23;20093;-83
2024/01/16 10:23:32;;;;;;;9.48;2.03;;;0.90;99.90;;;;;;6123172;23;20050;-81
2024/01/16 10:26:07;;;;;;;8.93;3.67;;;0.90;99.90;;;;;;6119666;23;20317;-81
2024/01/16 10:28:36;;;;;;;6.28;1.42;;;0.90;99.90;;;;;;6070518;23;20014;-84
2024/01/16 10:31:06;;;;;;;10.43;3.88;;;0.90;99.90;;;;;;6069688;23;20061;-79
2024/01/16 10:33:32;;;;;;;5.35;1.48;;;0.90;99.90;;;;;;6045557;23;20019;-78
2024/01/16 10:36:16;;;;;;;4.70;1.83;;;1.00;99.90;;;;;;6094326;23;20534;-79
2024/01/16 10:38:45;;;;;;;10.10;3.63;;;1.00;99.90;;;;;;6070391;23;20006;-78
2024/01/16 10:41:18;;;;;;;9.98;4.38;;;1.00;99.90;;;;;;6070443;23;20384;-79
2024/01/16 10:43:44;;;;;;;11.45;4.72;;;1.00;99.90;;;;;;6045810;23;20014;-79
2024/01/16 10:46:17;;;;;;;13.40;4.75;;;1.10;99.90;;;;;;6046273;23;20451;-79
2024/01/16 10:48:44;;;;;;;16.00;6.13;;;1.10;99.90;;;;;;6070402;23;20333;-79
2024/01/16 10:51:17;;;;;;;12.00;5.35;;;1.10;99.90;;;;;;6070203;23;20021;-78
2024/01/16 10:53:44;;;;;;;11.63;5.55;;;1.10;99.90;;;;;;6070095;23;20503;-78
2024/01/16 10:56:13;;;;;;;12.82;6.15;;;1.20;99.90;;;;;;6070295;23;20371;-79
2024/01/16 10:58:43;;;;;;;9.80;4.10;;;1.20;99.90;;;;;;6069514;23;20010;-78
2024/01/16 11:01:17;;;;;;;11.82;6.95;;;1.20;99.90;;;;;;6070254;23;20049;-79
2024/01/16 11:03:47;;;;;;;12.88;7.43;;;1.20;99.90;;;;;;6046047;23;20072;-78
2024/01/16 11:06:16;;;;;;;16.92;9.88;;;1.20;99.90;;;;;;6069901;23;20019;-78
2024/01/16 11:08:42;;;;;;;16.45;9.90;;;1.20;99.90;;;;;;6046048;23;20010;-79
2024/01/16 11:11:08;;;;;;;11.55;9.75;;;1.20;99.90;;;;;;6070163;23;20029;-80
2024/01/16 11:13:35;;;;;;;14.50;10.07;;;1.20;99.90;;;;;;6068043;23;20018;-80
2024/01/16 11:16:05;;;;;;;15.40;10.98;;;1.10;99.90;;;;;;6069646;23;20010;-80
2024/01/16 11:18:34;;;;;;;18.33;13.00;;;1.20;99.90;;;;;;6070151;23;20021;-79
2024/01/16 11:21:06;;;;;;;13.35;5.68;;;1.10;99.90;;;;;;6070237;23;20010;-78
2024/01/16 11:23:33;;;;;;;20.33;16.13;;;1.10;99.90;;;;;;6069149;23;20011;-78
2024/01/16 11:25:59;;;;;;;20.70;15.57;;;1.10;99.90;;;;;;6046371;23;20085;-75
2024/01/16 11:28:31;;;;;;;25.23;18.33;;;1.10;99.90;;;;;;6104305;23;20124;-75
2024/01/16 11:30:57;;;;;;;25.00;20.05;;;1.10;99.90;;;;;;6127777;23;20010;-74
2024/01/16 11:33:31;;;;;;;23.30;18.75;;;1.10;99.90;;;;;;6127837;23;20461;-74
2024/01/16 11:35:57;;;;;;;23.08;19.38;;;1.10;99.90;;;;;;6127479;23;20113;-74
2024/01/16 11:38:26;;;;;;;23.42;20.48;;;1.10;99.90;;;;;;6074145;23;20025;-74
2024/01/16 11:40:55;;;;;;;15.50;7.78;;;1.10;99.90;;;;;;6074600;23;20112;-74
2024/01/16 11:43:33;;;;;;;21.98;19.73;;;1.10;99.90;;;;;;6073639;23;20014;-74
2024/01/16 11:46:04;;;;;;;11.10;7.05;;;1.10;99.90;;;;;;6074558;23;20014;-75
2024/01/16 11:48:30;;;;;;;23.65;20.95;;;1.10;99.90;;;;;;6073916;23;20021;-76
2024/01/16 11:50:55;;;;;;;22.65;20.27;;;1.10;99.90;;;;;;6074276;23;20017;-74
2024/01/16 11:53:30;;;;;;;25.23;21.90;;;1.10;99.90;;;;;;6097680;23;20342;-74
2024/01/16 11:56:16;;;;;;;25.52;21.92;;;1.10;99.90;;;;;;6074158;23;20022;-75
2024/01/16 11:59:08;;;;;;;22.95;19.17;;;1.20;99.90;;;;;;6098807;23;20457;-74
2024/01/16 12:01:35;;;;;;;20.83;17.52;;;1.20;99.90;;;;;;6074154;23;20014;-74
2024/01/16 12:04:05;;;;;;;25.20;20.58;;;1.20;99.90;;;;;;6073998;23;20010;-75
2024/01/16 12:06:31;;;;;;;22.80;18.00;;;1.20;99.90;;;;;;6098430;23;20014;-75
2024/01/16 12:09:13;;;;;;;24.98;19.38;;;1.20;99.90;;;;;;6074469;23;20017;-75
2024/01/16 12:11:40;;;;;;;13.02;6.05;;;1.30;99.90;;;;;;6074071;23;20018;-74
2024/01/16 12:14:06;;;;;;;20.45;16.33;;;1.20;99.90;;;;;;6074277;23;20010;-75
2024/01/16 12:16:31;;;;;;;11.32;6.30;;;1.20;99.90;;;;;;6074584;23;20034;-75
2024/01/16 12:19:08;;;;;;;19.95;16.38;;;1.20;99.90;;;;;;6074141;23;20010;-74
2024/01/16 12:21:42;;;;;;;18.75;15.18;;;1.20;99.90;;;;;;6073916;23;20010;-74
2024/01/16 12:24:07;;;;;;;19.33;14.10;;;1.20;99.90;;;;;;6098246;23;20014;-74
2024/01/16 12:26:33;;;;;;;16.75;14.43;;;1.30;99.90;;;;;;6098401;23;20033;-74
2024/01/16 12:28:59;;;;;;;18.80;13.73;;;1.30;99.90;;;;;;6074486;23;20025;-74
2024/01/16 12:31:26;;;;;;;18.95;14.48;;;1.40;99.90;;;;;;6071072;23;20014;-75
2024/01/16 12:33:52;;;;;;;18.20;12.48;;;1.40;99.90;;;;;;6070912;23;20006;-74
2024/01/16 12:36:18;;;;;;;17.17;12.60;;;1.50;99.90;;;;;;6073769;23;20014;-74
2024/01/16 12:38:43;;;;;;;14.65;11.63;;;1.60;99.90;;;;;;6073338;23;20049;-74
2024/01/16 12:41:11;;;;;;;15.65;10.82;;;1.60;99.90;;;;;;6097578;23;20042;-74